Time;durP1;ratioP1;P1;durP2;ratioP2;P2;SDS_P1;SDS_P2;PMS_P1;PMS_P2;Temp;Humidity;BMP_temperature;BMP_pressure;BME280_temperature;BME280_humidity;BME280_pressure;Samples;Min_cycle;Max_cycle;Signal;HPM_P1;HPM_P2
2022/11/02 00:01:46;;;;;;;5.25;2.75;;;8.20;99.90;;;;;;5002566;28;20026;-83
2022/11/02 00:04:12;;;;;;;11.00;2.83;;;8.20;99.90;;;;;;4979667;28;20368;-83
2022/11/02 00:06:37;;;;;;;6.45;2.45;;;8.30;99.90;;;;;;4958591;28;20038;-84
2022/11/02 00:09:03;;;;;;;4.05;2.30;;;8.30;99.90;;;;;;4989878;28;20030;-85
2022/11/02 00:11:29;;;;;;;3.78;2.17;;;8.30;99.90;;;;;;5016815;28;20117;-84
2022/11/02 00:13:55;;;;;;;5.00;3.03;;;8.30;99.90;;;;;;5008445;28;20061;-83
2022/11/02 00:16:22;;;;;;;3.22;2.63;;;8.30;99.90;;;;;;4973531;28;20026;-84
2022/11/02 00:18:51;;;;;;;7.07;2.47;;;8.40;99.90;;;;;;5006207;28;20383;-84
2022/11/02 00:21:20;;;;;;;2.75;2.47;;;8.40;99.90;;;;;;4978522;28;20105;-84
2022/11/02 00:23:47;;;;;;;5.75;2.90;;;8.40;99.90;;;;;;4973995;28;20664;-83
2022/11/02 00:26:13;;;;;;;5.82;3.20;;;8.40;99.90;;;;;;4977680;28;20063;-83
2022/11/02 00:28:39;;;;;;;6.30;2.92;;;8.40;99.90;;;;;;4986388;28;20030;-84
2022/11/02 00:31:04;;;;;;;6.07;2.90;;;8.40;99.90;;;;;;4963827;28;20017;-82
2022/11/02 00:33:30;;;;;;;3.25;2.60;;;8.40;99.90;;;;;;4973997;28;20476;-83
2022/11/02 00:35:56;;;;;;;4.70;2.95;;;8.40;99.90;;;;;;4979297;28;20030;-84
2022/11/02 00:38:22;;;;;;;6.07;3.28;;;8.40;99.90;;;;;;4976185;28;20041;-84
2022/11/02 00:40:48;;;;;;;6.78;2.88;;;8.40;99.90;;;;;;4976164;28;20030;-85
2022/11/02 00:43:13;;;;;;;4.93;2.60;;;8.50;99.90;;;;;;4962425;28;20033;-83
2022/11/02 00:45:39;;;;;;;5.88;3.05;;;8.50;99.90;;;;;;4956826;28;20546;-83
2022/11/02 00:48:05;;;;;;;3.80;3.00;;;8.50;99.90;;;;;;4940754;28;20034;-84
2022/11/02 00:50:31;;;;;;;4.53;3.33;;;8.50;99.90;;;;;;4956722;28;20517;-84
2022/11/02 00:52:57;;;;;;;3.53;2.55;;;8.50;99.90;;;;;;5005173;28;20022;-83
2022/11/02 00:55:23;;;;;;;7.63;3.45;;;8.50;99.90;;;;;;4973212;28;20040;-83
2022/11/02 00:57:52;;;;;;;4.93;3.08;;;8.50;99.90;;;;;;5005613;28;20104;-84
2022/11/02 01:00:18;;;;;;;3.25;2.80;;;8.50;99.90;;;;;;4973664;28;20053;-84
2022/11/02 01:02:44;;;;;;;4.90;3.50;;;8.50;99.90;;;;;;4949974;28;20027;-84
2022/11/02 01:05:11;;;;;;;3.38;3.03;;;8.50;99.90;;;;;;4968516;28;20084;-85
2022/11/02 01:07:37;;;;;;;4.80;3.47;;;8.50;99.90;;;;;;4989500;28;20022;-85
2022/11/02 01:10:06;;;;;;;5.53;3.22;;;8.50;99.90;;;;;;4993145;28;20029;-84
2022/11/02 01:12:32;;;;;;;8.43;3.40;;;8.50;99.90;;;;;;4974342;28;20129;-84
2022/11/02 01:14:57;;;;;;;4.47;3.20;;;8.50;99.90;;;;;;4973360;28;20058;-84
2022/11/02 01:17:23;;;;;;;4.65;2.83;;;8.60;99.90;;;;;;4971498;28;20042;-85
2022/11/02 01:19:50;;;;;;;6.75;3.60;;;8.60;99.90;;;;;;4972915;28;20110;-84
2022/11/02 01:22:17;;;;;;;5.38;3.33;;;8.60;99.90;;;;;;4978642;28;20262;-85
2022/11/02 01:24:42;;;;;;;5.75;3.30;;;8.60;99.90;;;;;;4989958;28;20041;-85
2022/11/02 01:27:08;;;;;;;4.32;2.92;;;8.70;99.90;;;;;;4962311;28;20026;-85
2022/11/02 01:29:35;;;;;;;10.43;3.28;;;8.70;99.90;;;;;;4977126;28;20026;-85
2022/11/02 01:32:01;;;;;;;4.57;3.25;;;8.80;99.90;;;;;;4987615;28;20061;-85
2022/11/02 01:34:27;;;;;;;5.93;3.45;;;8.70;99.90;;;;;;4973502;28;20043;-84
2022/11/02 01:36:53;;;;;;;6.38;3.35;;;8.70;99.90;;;;;;4974531;28;20044;-85
2022/11/02 01:39:18;;;;;;;6.35;3.33;;;8.80;99.90;;;;;;4964018;28;20072;-83
2022/11/02 01:41:44;;;;;;;7.40;3.22;;;8.70;99.90;;;;;;4951538;28;20133;-84
2022/11/02 01:44:31;;;;;;;6.28;3.78;;;8.80;99.90;;;;;;4989843;28;20040;-84
2022/11/02 01:47:16;;;;;;;4.55;3.15;;;8.80;99.90;;;;;;4960767;28;20039;-85
2022/11/02 01:49:46;;;;;;;5.07;2.60;;;8.80;99.90;;;;;;4992830;28;20077;-84
2022/11/02 01:52:34;;;;;;;5.65;3.00;;;8.80;99.90;;;;;;4990232;28;20229;-84
2022/11/02 01:55:09;;;;;;;4.28;2.75;;;8.80;99.90;;;;;;4991786;28;20528;-83
2022/11/02 01:57:38;;;;;;;2.72;2.53;;;8.70;99.90;;;;;;5013604;28;20431;-84
2022/11/02 02:00:11;;;;;;;5.45;2.33;;;8.70;99.90;;;;;;4980425;28;20046;-85
2022/11/02 02:03:10;;;;;;;3.60;2.60;;;8.60;99.90;;;;;;5005253;28;20495;-84
2022/11/02 02:05:42;;;;;;;5.30;2.40;;;8.60;99.90;;;;;;4977338;28;20111;-85
2022/11/02 02:08:11;;;;;;;5.05;2.47;;;8.50;99.90;;;;;;5011733;28;20102;-84
2022/11/02 02:10:37;;;;;;;4.85;2.47;;;8.50;99.90;;;;;;4978744;28;20113;-84
2022/11/02 02:13:05;;;;;;;3.90;2.80;;;8.40;99.90;;;;;;4975595;28;20491;-85
2022/11/02 02:15:51;;;;;;;5.75;2.67;;;8.30;99.90;;;;;;4991470;28;20030;-83
2022/11/02 02:18:35;;;;;;;5.80;2.55;;;8.20;99.90;;;;;;5008260;28;20406;-83
2022/11/02 02:21:19;;;;;;;4.63;2.22;;;8.20;99.90;;;;;;4978172;28;20030;-84
2022/11/02 02:24:02;;;;;;;5.05;2.53;;;8.20;99.90;;;;;;4991227;28;20471;-84
2022/11/02 02:26:40;;;;;;;3.80;2.33;;;8.20;99.90;;;;;;4993833;28;20038;-85
2022/11/02 02:29:15;;;;;;;4.72;2.30;;;8.10;99.90;;;;;;4991677;28;20049;-85
2022/11/02 02:31:54;;;;;;;4.55;2.40;;;8.00;99.90;;;;;;4991788;28;20052;-84
2022/11/02 02:34:27;;;;;;;3.67;1.98;;;8.00;99.90;;;;;;4976809;28;20062;-83
2022/11/02 02:37:16;;;;;;;6.20;2.42;;;7.90;99.90;;;;;;4990705;28;20066;-85
2022/11/02 02:40:02;;;;;;;7.10;2.30;;;7.90;99.90;;;;;;4975496;28;20034;-85
2022/11/02 02:42:44;;;;;;;3.70;2.60;;;7.90;99.90;;;;;;4983118;28;20033;-84
2022/11/02 02:45:30;;;;;;;2.80;2.30;;;7.80;99.90;;;;;;4977541;28;20034;-84
2022/11/02 02:48:06;;;;;;;6.13;2.90;;;7.80;99.90;;;;;;4998693;28;20113;-84
2022/11/02 02:50:43;;;;;;;3.88;2.53;;;7.80;99.90;;;;;;4993700;28;20018;-84
2022/11/02 02:53:11;;;;;;;5.40;2.60;;;7.80;99.90;;;;;;5010811;28;20133;-85
2022/11/02 02:55:42;;;;;;;3.53;2.33;;;7.80;99.90;;;;;;4998973;28;20026;-83
2022/11/02 02:58:15;;;;;;;4.70;2.78;;;7.80;99.90;;;;;;4991552;28;20034;-85
2022/11/02 03:00:43;;;;;;;3.05;2.00;;;7.80;99.90;;;;;;4995955;28;20064;-83
2022/11/02 03:03:14;;;;;;;4.45;2.75;;;7.70;99.90;;;;;;4977602;28;20442;-84
2022/11/02 03:05:40;;;;;;;5.65;2.17;;;7.70;99.90;;;;;;4995059;28;20025;-84
2022/11/02 03:08:15;;;;;;;4.47;2.50;;;7.60;99.90;;;;;;4953925;28;20030;-85
2022/11/02 03:10:46;;;;;;;5.97;2.20;;;7.60;99.90;;;;;;4991464;28;20084;-84
2022/11/02 03:13:15;;;;;;;3.95;2.20;;;7.60;99.90;;;;;;5006778;28;20041;-84
2022/11/02 03:15:44;;;;;;;4.53;1.98;;;7.50;99.90;;;;;;4994596;28;20022;-84
2022/11/02 03:18:17;;;;;;;3.60;2.03;;;7.60;99.90;;;;;;5020571;28;20099;-84
2022/11/02 03:20:51;;;;;;;6.20;2.40;;;7.50;99.90;;;;;;4995526;28;20080;-84
2022/11/02 03:23:49;;;;;;;3.13;1.83;;;7.50;99.90;;;;;;5023035;28;20120;-84
2022/11/02 03:26:47;;;;;;;6.45;2.17;;;7.40;99.90;;;;;;4999086;28;20049;-83
2022/11/02 03:29:34;;;;;;;5.45;1.85;;;7.40;99.90;;;;;;5026593;28;20022;-84
2022/11/02 03:32:09;;;;;;;4.20;1.83;;;7.40;99.90;;;;;;4966511;28;20129;-83
2022/11/02 03:34:39;;;;;;;4.00;2.38;;;7.40;99.90;;;;;;4991836;28;20042;-85
2022/11/02 03:37:21;;;;;;;4.43;2.20;;;7.40;99.90;;;;;;4982585;28;20049;-84
2022/11/02 03:39:52;;;;;;;5.25;2.03;;;7.40;99.90;;;;;;4987537;28;20027;-85
2022/11/02 03:42:22;;;;;;;4.70;2.50;;;7.30;99.90;;;;;;4990366;28;20031;-85
2022/11/02 03:44:57;;;;;;;2.38;1.67;;;7.30;99.90;;;;;;4975231;28;20038;-84
2022/11/02 03:47:24;;;;;;;6.30;2.08;;;7.30;99.90;;;;;;5014030;28;21017;-85
2022/11/02 03:49:54;;;;;;;3.42;2.03;;;7.40;99.90;;;;;;4974588;28;20041;-84
2022/11/02 03:52:27;;;;;;;5.13;2.08;;;7.30;99.90;;;;;;4987926;28;20030;-83
2022/11/02 03:54:58;;;;;;;3.25;1.83;;;7.30;99.90;;;;;;4990197;28;20038;-83
2022/11/02 03:57:31;;;;;;;6.15;1.67;;;7.30;99.90;;;;;;4975171;28;20030;-85
2022/11/02 04:00:16;;;;;;;4.10;1.70;;;7.30;99.90;;;;;;4974427;28;20514;-84
2022/11/02 04:02:54;;;;;;;6.90;2.00;;;7.40;99.90;;;;;;4987751;28;20030;-86
2022/11/02 04:05:30;;;;;;;3.03;1.80;;;7.40;99.90;;;;;;5002075;28;20544;-85
2022/11/02 04:16:14;;;;;;;6.15;1.50;;;7.50;99.90;;;;;;4995181;28;20038;-86
2022/11/02 04:21:27;;;;;;;6.63;1.40;;;7.40;99.90;;;;;;4989652;28;20513;-84
2022/11/02 04:26:38;;;;;;;4.00;1.63;;;7.40;99.90;;;;;;4993814;28;20058;-84
2022/11/02 04:29:04;;;;;;;2.95;1.52;;;7.40;99.90;;;;;;4960124;28;20118;-85
2022/11/02 04:31:30;;;;;;;4.40;1.60;;;7.40;99.90;;;;;;4958414;28;20039;-84
2022/11/02 04:34:00;;;;;;;4.55;1.75;;;7.50;99.90;;;;;;4983218;28;20515;-85
2022/11/02 04:36:31;;;;;;;4.18;1.45;;;7.50;99.90;;;;;;4984584;28;20041;-86
2022/11/02 04:38:57;;;;;;;5.00;1.20;;;7.50;99.90;;;;;;4990528;28;20085;-85
2022/11/02 04:41:41;;;;;;;7.90;2.10;;;7.50;99.90;;;;;;4994512;28;20038;-85
2022/11/02 04:44:19;;;;;;;2.63;1.33;;;7.50;99.90;;;;;;4990747;28;20050;-84
2022/11/02 04:46:54;;;;;;;8.38;1.77;;;7.50;99.90;;;;;;4966866;28;20042;-83
2022/11/02 04:49:24;;;;;;;5.05;1.40;;;7.50;99.90;;;;;;4994810;28;20042;-85
2022/11/02 04:51:50;;;;;;;4.32;1.38;;;7.50;99.90;;;;;;4982792;28;20058;-84
2022/11/02 04:54:18;;;;;;;4.70;1.23;;;7.50;99.90;;;;;;4970481;28;20181;-85
2022/11/02 04:56:46;;;;;;;2.90;1.17;;;7.50;99.90;;;;;;4965821;28;20037;-83
2022/11/02 04:59:12;;;;;;;2.13;1.30;;;7.60;99.90;;;;;;4947118;28;20083;-85
2022/11/02 05:01:38;;;;;;;3.55;1.30;;;7.60;99.90;;;;;;4978297;28;20113;-85
2022/11/02 05:04:04;;;;;;;4.35;1.40;;;7.50;99.90;;;;;;4993590;28;20485;-85
2022/11/02 05:06:32;;;;;;;5.43;1.38;;;7.50;99.90;;;;;;4989573;28;20036;-84
2022/11/02 05:08:58;;;;;;;8.20;1.67;;;7.50;99.90;;;;;;4960272;28;20465;-85
2022/11/02 05:11:25;;;;;;;5.70;1.42;;;7.50;99.90;;;;;;5007761;28;20022;-85
2022/11/02 05:13:51;;;;;;;4.45;1.25;;;7.50;99.90;;;;;;4962903;28;20050;-85
2022/11/02 05:16:18;;;;;;;4.65;1.45;;;7.50;99.90;;;;;;4964683;28;20149;-85
2022/11/02 05:18:45;;;;;;;4.40;1.40;;;7.50;99.90;;;;;;4966896;28;20035;-85
2022/11/02 05:21:13;;;;;;;5.93;1.70;;;7.50;99.90;;;;;;4986301;28;20125;-83
2022/11/02 05:23:39;;;;;;;4.40;2.00;;;7.50;99.90;;;;;;4992176;28;20431;-84
2022/11/02 05:26:09;;;;;;;6.82;3.22;;;7.40;99.90;;;;;;5003259;28;20092;-83
2022/11/02 05:28:35;;;;;;;16.00;8.00;;;7.40;99.90;;;;;;4981897;28;20114;-83
2022/11/02 05:31:03;;;;;;;17.77;10.13;;;7.50;99.90;;;;;;4992335;28;20029;-84
2022/11/02 05:33:32;;;;;;;18.15;9.10;;;7.40;99.90;;;;;;4996658;28;20056;-84
2022/11/02 05:36:03;;;;;;;14.38;7.65;;;7.40;99.90;;;;;;4991661;28;20027;-83
2022/11/02 05:38:30;;;;;;;16.20;8.10;;;7.40;99.90;;;;;;4959753;28;20456;-82
2022/11/02 05:40:58;;;;;;;16.25;7.47;;;7.40;99.90;;;;;;4985158;28;20029;-84
2022/11/02 05:43:28;;;;;;;12.82;5.75;;;7.40;99.90;;;;;;4974128;28;20035;-84
2022/11/02 05:45:59;;;;;;;9.32;4.05;;;7.40;99.90;;;;;;4955840;28;20022;-85
2022/11/02 05:48:27;;;;;;;9.45;4.03;;;7.30;99.90;;;;;;4983077;28;20518;-83
2022/11/02 05:50:57;;;;;;;7.35;3.50;;;7.30;99.90;;;;;;4964224;28;20482;-83
2022/11/02 05:53:23;;;;;;;7.28;4.05;;;7.30;99.90;;;;;;5000433;28;20096;-83
2022/11/02 05:55:49;;;;;;;11.25;4.95;;;7.20;99.90;;;;;;4987973;28;20081;-83
2022/11/02 05:58:15;;;;;;;8.77;4.97;;;7.20;99.90;;;;;;4997714;28;20037;-85
2022/11/02 06:00:41;;;;;;;9.63;4.63;;;7.20;99.90;;;;;;5001270;28;20030;-85
2022/11/02 06:03:07;;;;;;;9.88;4.82;;;7.20;99.90;;;;;;4978169;28;20066;-84
2022/11/02 06:05:33;;;;;;;7.13;3.75;;;7.10;99.90;;;;;;5000223;28;20053;-86
2022/11/02 06:08:01;;;;;;;6.65;4.13;;;7.10;99.90;;;;;;4969013;28;20031;-85
2022/11/02 06:10:29;;;;;;;4.78;2.83;;;7.20;99.90;;;;;;4991570;28;20058;-85
2022/11/02 06:12:59;;;;;;;2.95;2.45;;;7.10;99.90;;;;;;4981515;28;20027;-86
2022/11/02 06:15:26;;;;;;;8.75;3.08;;;7.10;99.90;;;;;;4982814;28;20030;-84
2022/11/02 06:17:52;;;;;;;3.70;2.72;;;7.10;99.90;;;;;;4984063;28;20034;-85
2022/11/02 06:20:18;;;;;;;6.50;2.42;;;7.10;99.90;;;;;;4985016;28;20049;-85
2022/11/02 06:22:44;;;;;;;3.85;1.90;;;7.10;99.90;;;;;;5003989;28;20696;-84
2022/11/02 06:25:10;;;;;;;4.90;1.95;;;7.00;99.90;;;;;;4987054;28;20061;-84
2022/11/02 06:27:36;;;;;;;7.18;2.20;;;7.00;99.90;;;;;;5003967;28;20451;-84
2022/11/02 06:30:05;;;;;;;3.85;1.80;;;7.00;99.90;;;;;;4987519;28;20455;-83
2022/11/02 06:32:31;;;;;;;7.25;1.63;;;7.10;99.90;;;;;;4969529;28;20022;-84
2022/11/02 06:34:56;;;;;;;9.63;2.45;;;7.10;99.90;;;;;;5003812;28;20422;-85
2022/11/02 06:37:22;;;;;;;4.55;1.45;;;7.10;99.90;;;;;;4986944;28;20702;-85
2022/11/02 06:39:48;;;;;;;3.20;1.75;;;7.10;99.90;;;;;;4979982;28;20041;-84
2022/11/02 06:42:14;;;;;;;4.85;1.25;;;7.10;99.90;;;;;;4987695;28;20042;-84
2022/11/02 06:44:40;;;;;;;4.45;1.40;;;7.10;99.90;;;;;;4983381;28;20042;-84
2022/11/02 06:47:06;;;;;;;4.03;1.67;;;7.20;99.90;;;;;;4999858;28;20037;-84
2022/11/02 06:49:32;;;;;;;8.77;1.65;;;7.20;99.90;;;;;;4996183;28;20026;-85
2022/11/02 06:51:57;;;;;;;3.70;1.38;;;7.20;99.90;;;;;;4984035;28;20448;-83
2022/11/02 06:54:23;;;;;;;5.15;1.55;;;7.20;99.90;;;;;;4983110;28;20201;-83
2022/11/02 06:56:49;;;;;;;5.80;1.73;;;7.30;99.90;;;;;;5005768;28;20038;-84
2022/11/02 06:59:15;;;;;;;8.35;2.30;;;7.30;99.90;;;;;;4993544;28;20434;-83
2022/11/02 07:01:41;;;;;;;5.72;1.67;;;7.40;99.90;;;;;;4975648;28;20130;-84
2022/11/02 07:04:06;;;;;;;6.82;1.88;;;7.50;99.90;;;;;;4974855;28;20037;-83
2022/11/02 07:06:32;;;;;;;4.13;1.25;;;7.70;99.90;;;;;;4969005;28;20479;-84
2022/11/02 07:08:58;;;;;;;2.63;1.38;;;7.90;99.90;;;;;;4960024;28;20500;-83
2022/11/02 07:11:24;;;;;;;6.90;1.48;;;8.10;99.90;;;;;;4962651;28;20494;-84
2022/11/02 07:13:49;;;;;;;7.88;1.20;;;8.40;99.90;;;;;;4942825;28;20062;-83
2022/11/02 07:16:15;;;;;;;4.53;1.33;;;8.70;99.90;;;;;;4991782;28;20026;-84
2022/11/02 07:18:41;;;;;;;5.82;1.23;;;8.90;99.90;;;;;;4975126;28;20030;-85
2022/11/02 07:21:10;;;;;;;7.88;1.70;;;9.00;99.90;;;;;;4975613;28;20113;-84
2022/11/02 07:23:35;;;;;;;4.43;1.73;;;8.90;99.90;;;;;;4973822;28;20407;-84
2022/11/02 07:26:01;;;;;;;4.05;1.63;;;9.00;99.90;;;;;;4943779;28;20022;-84
2022/11/02 07:28:27;;;;;;;2.90;1.70;;;9.10;99.90;;;;;;4987809;28;20038;-83
2022/11/02 07:30:54;;;;;;;4.07;1.52;;;9.40;99.90;;;;;;4996335;28;20030;-83
2022/11/02 07:33:20;;;;;;;5.88;1.25;;;9.70;99.90;;;;;;5014115;28;20060;-85
2022/11/02 07:35:46;;;;;;;1.80;1.05;;;10.00;99.90;;;;;;4995297;28;20549;-84
2022/11/02 07:38:12;;;;;;;4.82;1.17;;;10.30;99.90;;;;;;4970456;28;20464;-83
2022/11/02 07:40:37;;;;;;;3.78;0.95;;;10.50;99.90;;;;;;5002713;28;20067;-83
2022/11/02 07:43:05;;;;;;;3.50;1.40;;;10.50;99.90;;;;;;4989532;28;20042;-83
2022/11/02 07:45:38;;;;;;;4.70;1.63;;;10.60;99.90;;;;;;4968379;28;20026;-84
2022/11/02 07:48:06;;;;;;;4.95;1.85;;;10.60;99.90;;;;;;4973175;28;20049;-83
2022/11/02 07:50:32;;;;;;;4.43;1.50;;;10.60;99.90;;;;;;4972747;28;20039;-84
2022/11/02 07:52:59;;;;;;;4.57;1.20;;;10.70;99.90;;;;;;4988903;28;20042;-84
2022/11/02 07:55:27;;;;;;;3.78;1.65;;;10.60;99.90;;;;;;4981006;28;20042;-83
2022/11/02 07:57:58;;;;;;;4.38;1.00;;;10.40;99.90;;;;;;5001697;28;20038;-84
2022/11/02 08:00:27;;;;;;;5.28;1.50;;;10.30;99.90;;;;;;4971959;28;20559;-83
2022/11/02 08:02:54;;;;;;;2.35;1.20;;;10.30;99.90;;;;;;4956481;28;20051;-83
2022/11/02 08:05:20;;;;;;;3.63;1.30;;;10.20;99.90;;;;;;5004460;28;20048;-84
2022/11/02 08:07:46;;;;;;;4.13;1.55;;;10.10;99.90;;;;;;4988976;28;20109;-84
2022/11/02 08:10:11;;;;;;;4.75;1.77;;;10.10;99.90;;;;;;4973065;28;20038;-84
2022/11/02 08:12:38;;;;;;;7.75;1.33;;;10.10;99.90;;;;;;4964193;28;20034;-83
2022/11/02 08:15:04;;;;;;;3.63;1.50;;;10.00;99.90;;;;;;4969972;28;20031;-83
2022/11/02 08:17:30;;;;;;;7.03;1.60;;;9.90;99.90;;;;;;4969532;28;20408;-83
2022/11/02 08:19:56;;;;;;;3.95;1.60;;;9.90;99.90;;;;;;5005027;28;20088;-83
2022/11/02 08:22:21;;;;;;;7.63;2.08;;;9.90;99.90;;;;;;4974759;28;20048;-83
2022/11/02 08:24:47;;;;;;;3.72;1.38;;;9.90;99.90;;;;;;4990615;28;20030;-83
2022/11/02 08:27:13;;;;;;;6.18;1.45;;;9.90;99.90;;;;;;4958514;28;20746;-83
2022/11/02 08:29:39;;;;;;;6.15;1.70;;;10.00;99.90;;;;;;4969409;28;20081;-84
2022/11/02 08:32:04;;;;;;;5.90;1.63;;;10.00;99.90;;;;;;4965991;28;20550;-83
2022/11/02 08:34:30;;;;;;;5.35;1.60;;;10.10;99.90;;;;;;4965160;28;20038;-83
2022/11/02 08:36:56;;;;;;;3.58;1.50;;;10.20;99.90;;;;;;4940437;28;20030;-83
2022/11/02 08:39:22;;;;;;;3.90;1.55;;;10.30;99.90;;;;;;4969963;28;20043;-83
2022/11/02 08:41:48;;;;;;;6.35;1.52;;;10.40;99.90;;;;;;4967132;28;20037;-85
2022/11/02 08:44:14;;;;;;;5.28;2.53;;;10.40;99.90;;;;;;4994855;28;20045;-84
2022/11/02 08:46:39;;;;;;;3.92;1.75;;;10.50;99.90;;;;;;4978246;28;20037;-83
2022/11/02 08:49:05;;;;;;;7.85;1.38;;;10.50;99.90;;;;;;4974612;28;20872;-83
2022/11/02 08:51:31;;;;;;;3.90;1.10;;;10.50;99.90;;;;;;4961918;28;20034;-84
2022/11/02 08:53:56;;;;;;;3.13;1.30;;;10.50;99.90;;;;;;4987865;28;20117;-83
2022/11/02 08:56:22;;;;;;;6.85;1.77;;;10.50;99.90;;;;;;4952591;28;20035;-83
2022/11/02 08:58:48;;;;;;;9.57;1.70;;;10.50;99.90;;;;;;4986927;28;20056;-84
2022/11/02 09:01:14;;;;;;;10.23;1.60;;;10.50;99.90;;;;;;4971483;28;20041;-83
2022/11/02 09:03:40;;;;;;;5.95;1.40;;;10.50;99.90;;;;;;4971695;28;20030;-83
2022/11/02 09:06:06;;;;;;;4.32;1.42;;;10.60;99.90;;;;;;4984398;28;20050;-83
2022/11/02 09:08:32;;;;;;;5.13;1.23;;;10.60;99.90;;;;;;4983785;28;20062;-83
2022/11/02 09:11:00;;;;;;;5.55;1.33;;;10.70;99.90;;;;;;4969551;28;20030;-84
2022/11/02 09:13:27;;;;;;;6.82;1.40;;;10.70;99.90;;;;;;4979366;28;20056;-84
2022/11/02 09:15:55;;;;;;;4.75;1.33;;;10.80;99.90;;;;;;4971945;28;20039;-82
2022/11/02 09:18:21;;;;;;;5.88;1.38;;;10.80;99.90;;;;;;4987740;28;20042;-84
2022/11/02 09:20:47;;;;;;;3.50;1.45;;;10.80;99.90;;;;;;4987932;28;20434;-84
2022/11/02 09:23:20;;;;;;;6.25;1.52;;;10.90;99.90;;;;;;5000614;28;21111;-84
2022/11/02 09:25:47;;;;;;;3.85;1.02;;;10.90;99.90;;;;;;5003809;28;20034;-83
2022/11/02 09:28:14;;;;;;;5.50;1.48;;;11.00;99.90;;;;;;4987918;28;20029;-83
2022/11/02 09:30:40;;;;;;;7.53;1.73;;;11.10;99.90;;;;;;4991129;28;20405;-82
2022/11/02 09:33:07;;;;;;;6.28;1.50;;;11.10;99.90;;;;;;4965224;28;20035;-83
2022/11/02 09:35:38;;;;;;;9.25;1.73;;;11.20;99.90;;;;;;4996636;28;20085;-83
2022/11/02 09:38:04;;;;;;;3.08;1.70;;;11.30;99.90;;;;;;4965106;28;20030;-84
2022/11/02 09:40:57;;;;;;;9.48;1.85;;;11.40;99.90;;;;;;4972757;28;20459;-83
2022/11/02 09:44:01;;;;;;;4.68;1.98;;;11.50;99.90;;;;;;4934468;28;20081;-84
2022/11/02 09:46:39;;;;;;;4.93;1.85;;;11.60;99.90;;;;;;4961337;28;20089;-82
2022/11/02 09:49:18;;;;;;;9.25;1.40;;;11.70;99.90;;;;;;5006859;28;20030;-83
2022/11/02 09:51:51;;;;;;;4.03;1.45;;;11.70;99.90;;;;;;5001176;28;20023;-84
2022/11/02 09:54:39;;;;;;;5.78;1.77;;;11.70;99.90;;;;;;4992436;28;20041;-83
2022/11/02 09:57:13;;;;;;;3.83;1.13;;;11.70;99.90;;;;;;4961483;28;20038;-83
2022/11/02 09:59:40;;;;;;;8.50;1.55;;;11.80;99.90;;;;;;4998816;28;20109;-85
2022/11/02 10:02:29;;;;;;;4.22;1.60;;;11.80;99.90;;;;;;4973047;28;20122;-82
2022/11/02 10:05:07;;;;;;;4.40;1.63;;;11.80;99.90;;;;;;4988479;28;20388;-83
2022/11/02 10:07:36;;;;;;;5.20;1.42;;;11.80;99.90;;;;;;4993069;28;20105;-85
2022/11/02 10:10:10;;;;;;;8.57;2.53;;;11.80;99.90;;;;;;5007183;28;20618;-84
2022/11/02 10:13:00;;;;;;;5.07;1.43;;;11.80;99.90;;;;;;4973010;28;20077;-84
2022/11/02 10:15:36;;;;;;;7.20;1.73;;;11.90;99.90;;;;;;4975234;28;20274;-83
2022/11/02 10:18:03;;;;;;;4.90;1.52;;;11.90;99.90;;;;;;4998119;28;20042;-82
2022/11/02 10:20:48;;;;;;;4.07;1.85;;;12.00;99.90;;;;;;4974667;28;20029;-84
2022/11/02 10:23:25;;;;;;;3.88;1.40;;;12.00;99.90;;;;;;4988528;28;20034;-82
2022/11/02 10:25:52;;;;;;;7.25;2.33;;;12.10;99.90;;;;;;4985508;28;20186;-81
2022/11/02 10:28:23;;;;;;;6.43;1.63;;;12.10;99.90;;;;;;4987876;28;20113;-84
2022/11/02 10:30:51;;;;;;;4.15;1.73;;;12.10;99.90;;;;;;4990078;28;20019;-81
2022/11/02 10:33:24;;;;;;;9.27;1.70;;;12.20;99.90;;;;;;4974314;28;20126;-80
2022/11/02 10:36:31;;;;;;;5.40;1.92;;;12.20;99.90;;;;;;4992685;28;20057;-80
2022/11/02 10:39:31;;;;;;;8.05;1.55;;;12.30;99.90;;;;;;4976021;28;20491;-83
2022/11/02 10:42:03;;;;;;;5.43;1.30;;;12.40;99.90;;;;;;4990119;28;20030;-84
2022/11/02 10:44:40;;;;;;;10.82;1.90;;;12.50;99.90;;;;;;5010556;28;20030;-82
2022/11/02 10:47:17;;;;;;;7.82;1.23;;;12.60;99.90;;;;;;4990221;28;20157;-83
2022/11/02 10:50:13;;;;;;;6.97;1.20;;;12.60;99.90;;;;;;4987562;28;20019;-83
2022/11/02 10:52:42;;;;;;;8.75;1.92;;;12.70;99.90;;;;;;4974103;28;20026;-83
2022/11/02 10:55:19;;;;;;;6.10;1.48;;;12.70;99.90;;;;;;4986288;28;20134;-82
2022/11/02 10:57:46;;;;;;;3.38;1.20;;;12.80;99.90;;;;;;4967544;28;20113;-83
2022/11/02 11:00:24;;;;;;;2.53;1.27;;;12.80;99.90;;;;;;4987669;28;20072;-83
2022/11/02 11:03:13;;;;;;;5.15;1.45;;;12.80;99.90;;;;;;4998383;28;20030;-81
2022/11/02 11:05:48;;;;;;;4.47;1.20;;;12.90;99.90;;;;;;5003539;28;20034;-81
2022/11/02 11:08:36;;;;;;;12.05;1.40;;;12.80;99.90;;;;;;5000560;28;20022;-83
2022/11/02 11:11:36;;;;;;;3.42;1.35;;;12.80;99.90;;;;;;4989512;28;20022;-83
2022/11/02 11:14:22;;;;;;;4.43;1.23;;;12.70;99.90;;;;;;4983229;28;20113;-83
2022/11/02 11:16:52;;;;;;;6.38;1.02;;;12.60;99.90;;;;;;4981720;28;20054;-83
2022/11/02 11:19:20;;;;;;;6.35;1.67;;;12.60;99.90;;;;;;4997021;28;20058;-82
2022/11/02 11:21:48;;;;;;;10.95;1.67;;;12.60;99.90;;;;;;5000789;28;20455;-84
2022/11/02 11:24:29;;;;;;;4.18;1.08;;;12.60;99.90;;;;;;4966978;28;20026;-84
2022/11/02 11:27:00;;;;;;;3.25;1.00;;;12.60;99.90;;;;;;4985163;28;20034;-83
2022/11/02 11:29:30;;;;;;;5.93;0.82;;;12.60;99.90;;;;;;4972455;28;20105;-83
2022/11/02 11:31:58;;;;;;;4.38;1.20;;;12.50;99.90;;;;;;4985653;28;20533;-83
2022/11/02 11:34:28;;;;;;;4.55;1.13;;;12.50;99.90;;;;;;4938874;28;20035;-85
2022/11/02 11:37:13;;;;;;;6.07;1.38;;;12.40;99.90;;;;;;4969897;28;20499;-82
2022/11/02 11:39:43;;;;;;;6.07;1.20;;;12.20;99.90;;;;;;4977485;28;20058;-82
2022/11/02 11:42:19;;;;;;;9.27;1.73;;;12.10;99.90;;;;;;5005343;28;20030;-81
2022/11/02 11:44:59;;;;;;;9.85;2.45;;;11.90;99.90;;;;;;4976903;28;20035;-83
2022/11/02 11:47:28;;;;;;;3.15;1.10;;;11.80;99.90;;;;;;5004885;28;20034;-82
2022/11/02 11:49:56;;;;;;;5.35;1.35;;;11.80;99.90;;;;;;4990239;28;20026;-83
2022/11/02 11:52:30;;;;;;;4.43;1.10;;;11.70;99.90;;;;;;4989920;28;20030;-82
2022/11/02 11:54:58;;;;;;;6.53;1.10;;;11.70;99.90;;;;;;4973576;28;20026;-83
2022/11/02 11:57:30;;;;;;;4.97;0.98;;;11.80;99.90;;;;;;4991379;28;20415;-83
2022/11/02 11:59:58;;;;;;;4.97;1.00;;;12.00;99.90;;;;;;4990143;28;20065;-82
2022/11/02 12:02:24;;;;;;;6.65;1.30;;;12.10;99.90;;;;;;4956043;28;20042;-82
2022/11/02 12:04:50;;;;;;;4.60;0.80;;;12.30;99.90;;;;;;5005654;28;20036;-82
2022/11/02 12:07:44;;;;;;;9.15;1.60;;;12.50;99.90;;;;;;4972112;28;20030;-84
2022/11/02 12:10:29;;;;;;;8.75;1.88;;;12.60;99.90;;;;;;4972171;28;20035;-84
2022/11/02 12:13:20;;;;;;;9.10;1.77;;;12.60;99.90;;;;;;4970993;28;20038;-85
2022/11/02 12:16:03;;;;;;;5.28;0.90;;;12.60;99.90;;;;;;4970549;28;20484;-85
2022/11/02 12:19:02;;;;;;;3.75;0.95;;;12.50;99.90;;;;;;4982263;28;20433;-86
2022/11/02 12:21:46;;;;;;;6.25;1.10;;;12.40;99.90;;;;;;4986278;28;20084;-85
2022/11/02 12:24:24;;;;;;;5.20;1.25;;;12.20;99.90;;;;;;4968260;28;20053;-84
2022/11/02 12:27:07;;;;;;;4.00;0.80;;;12.10;99.90;;;;;;4984223;28;20627;-84
2022/11/02 12:29:54;;;;;;;6.53;1.10;;;12.10;99.90;;;;;;5000230;28;20027;-85
2022/11/02 12:32:34;;;;;;;4.10;1.00;;;12.10;99.90;;;;;;5003438;28;20026;-86
2022/11/02 12:35:34;;;;;;;4.32;1.10;;;12.20;99.90;;;;;;5006671;28;20034;-85
2022/11/02 12:38:40;;;;;;;2.83;0.90;;;12.20;99.90;;;;;;4988780;28;20494;-85
2022/11/02 12:41:11;;;;;;;6.60;1.48;;;12.20;99.90;;;;;;5006945;28;20030;-85
2022/11/02 12:43:43;;;;;;;8.23;1.90;;;12.20;99.90;;;;;;4964171;28;20092;-84
2022/11/02 12:46:21;;;;;;;;;;;12.20;99.90;;;;;;5009226;28;20038;-83
2022/11/02 12:49:19;;;;;;;4.85;1.20;;;12.30;99.90;;;;;;4973904;28;19941;-86
2022/11/02 12:52:04;;;;;;;3.35;0.98;;;12.30;99.90;;;;;;5004100;28;20498;-84
2022/11/02 12:54:40;;;;;;;6.53;1.20;;;12.40;99.90;;;;;;5006836;28;20393;-84
2022/11/02 12:57:15;;;;;;;5.00;1.17;;;12.50;99.90;;;;;;4978091;28;20535;-85
2022/11/02 12:59:42;;;;;;;6.10;1.20;;;12.50;99.90;;;;;;4992547;28;20031;-84
2022/11/02 13:02:25;;;;;;;6.10;1.27;;;12.50;99.90;;;;;;5003545;28;20030;-84
2022/11/02 13:05:02;;;;;;;7.03;1.25;;;12.60;99.90;;;;;;4984626;28;20058;-83
2022/11/02 13:07:37;;;;;;;4.30;1.20;;;12.60;99.90;;;;;;4978843;28;20486;-83
2022/11/02 13:10:27;;;;;;;2.47;0.95;;;12.70;99.90;;;;;;4971893;28;20031;-84
2022/11/02 13:12:57;;;;;;;4.25;0.90;;;12.70;99.90;;;;;;4982149;28;20022;-80
2022/11/02 13:15:24;;;;;;;4.63;1.25;;;12.80;99.90;;;;;;5001880;28;20038;-83
2022/11/02 13:18:09;;;;;;;2.75;1.00;;;12.80;99.90;;;;;;4970741;28;20380;-82
2022/11/02 13:20:54;;;;;;;1.85;0.90;;;12.80;99.90;;;;;;5002582;28;20049;-84
2022/11/02 13:23:43;;;;;;;5.68;1.45;;;12.80;99.90;;;;;;4996643;28;20027;-82
2022/11/02 13:26:23;;;;;;;3.55;1.10;;;12.80;99.90;;;;;;4988360;28;20052;-81
2022/11/02 13:29:02;;;;;;;6.43;1.10;;;12.70;99.90;;;;;;4973760;28;20034;-81
2022/11/02 13:31:40;;;;;;;6.20;1.40;;;12.60;99.90;;;;;;5005407;28;20026;-81